Time;durP1;ratioP1;P1;durP2;ratioP2;P2;SDS_P1;SDS_P2;PMS_P1;PMS_P2;Temp;Humidity;BMP_temperature;BMP_pressure;BME280_temperature;BME280_humidity;BME280_pressure;Samples;Min_cycle;Max_cycle;Signal;HPM_P1;HPM_P2
2021/05/11 04:45:42;;;;;;;3.40;2.05;;;;;;;;;;6247264;22;883540;-76
2021/05/11 04:48:08;;;;;;;3.42;2.22;;;;;;;;;;6277288;22;20039;-76
2021/05/11 04:50:34;;;;;;;4.85;2.15;;;;;;;;;;6276910;22;20026;-77
2021/05/11 04:53:00;;;;;;;4.80;3.03;;;;;;;;;;6276478;22;20441;-77
2021/05/11 04:55:27;;;;;;;4.30;2.78;;;;;;;;;;6277268;22;20000;-77
2021/05/11 04:57:53;;;;;;;3.55;2.55;;;;;;;;;;6277128;22;20037;-76
2021/05/11 05:00:18;;;;;;;3.92;2.72;;;;;;;;;;6261854;22;20020;-76
2021/05/11 05:02:46;;;;;;;4.03;2.90;;;;;;;;;;6243874;22;20075;-79
2021/05/11 05:05:14;;;;;;;4.07;2.63;;;;;;;;;;6245263;22;20004;-79
2021/05/11 05:07:40;;;;;;;6.00;4.15;;;;;;;;;;6244307;23;20031;-78
2021/05/11 05:10:07;;;;;;;12.30;9.45;;;;;;;;;;6245471;22;20004;-79
2021/05/11 05:12:33;;;;;;;21.00;17.27;;;;;;;;;;6246163;23;20342;-79
2021/05/11 05:14:59;;;;;;;11.55;9.43;;;;;;;;;;6243108;23;20014;-79
2021/05/11 05:17:25;;;;;;;7.43;5.82;;;;;;;;;;6245734;23;20000;-78
2021/05/11 05:19:50;;;;;;;8.25;4.70;;;;;;;;;;6245646;23;20000;-79
2021/05/11 05:22:17;;;;;;;7.00;3.72;;;;;;;;;;6245464;23;20026;-78
2021/05/11 05:24:55;;;;;;;4.32;3.15;;;;;;;;;;6245098;22;20050;-78
2021/05/11 05:27:24;;;;;;;5.25;3.42;;;;;;;;;;6244490;22;20008;-78
2021/05/11 05:29:50;;;;;;;4.65;3.40;;;;;;;;;;6245425;22;20004;-79
2021/05/11 05:32:16;;;;;;;6.07;3.28;;;;;;;;;;6245423;22;20014;-79
2021/05/11 05:34:42;;;;;;;7.40;3.60;;;;;;;;;;6244886;23;20032;-80
2021/05/11 05:37:08;;;;;;;6.40;2.95;;;;;;;;;;6245251;22;20502;-79
2021/05/11 05:39:43;;;;;;;5.40;3.45;;;;;;;;;;6244539;22;20000;-79
2021/05/11 05:42:09;;;;;;;5.65;2.97;;;;;;;;;;6243748;22;20000;-79
2021/05/11 05:46:53;;;;;;;5.82;4.15;;;;;;;;;;5107244;27;20350;-77
2021/05/11 05:49:19;;;;;;;5.88;4.43;;;;;;;;;;5113854;27;20031;-77
2021/05/11 05:51:48;;;;;;;5.68;3.75;;;;;;;;;;5093760;28;20028;-77
2021/05/11 05:54:14;;;;;;;3.97;3.05;;;;;;;;;;5097271;28;20031;-77
2021/05/11 05:56:39;;;;;;;6.20;3.50;;;;;;;;;;5094460;28;20016;-77
2021/05/11 05:59:05;;;;;;;4.72;3.45;;;;;;;;;;5096010;28;20108;-77
2021/05/11 06:01:31;;;;;;;5.38;3.15;;;;;;;;;;5091665;28;20035;-78
2021/05/11 06:04:04;;;;;;;3.97;3.08;;;;;;;;;;5096495;28;20455;-77
2021/05/11 06:06:30;;;;;;;4.43;3.38;;;;;;;;;;5091187;28;20426;-78
2021/05/11 06:08:58;;;;;;;4.28;3.15;;;;;;;;;;5096453;28;20107;-77
2021/05/11 06:11:32;;;;;;;4.65;3.50;;;;;;;;;;5102676;28;20032;-78
2021/05/11 06:19:15;;;;;;;4.72;3.60;;;;;;;;;;5097900;28;20598;-78
2021/05/11 06:21:40;;;;;;;6.00;3.20;;;;;;;;;;5093093;28;20025;-77
2021/05/11 06:24:06;;;;;;;3.83;2.50;;;;;;;;;;5083993;28;20038;-77
2021/05/11 06:26:32;;;;;;;4.10;2.90;;;;;;;;;;5097463;28;20047;-78
2021/05/11 06:29:00;;;;;;;3.80;2.60;;;;;;;;;;5086483;28;20491;-78
2021/05/11 06:31:26;;;;;;;4.60;2.80;;;;;;;;;;5098257;28;20046;-77
2021/05/11 06:33:51;;;;;;;2.90;1.80;;;;;;;;;;5088715;28;20022;-77
2021/05/11 06:36:17;;;;;;;3.60;1.83;;;;;;;;;;5098260;28;20034;-78
2021/05/11 06:38:43;;;;;;;3.00;2.10;;;;;;;;;;5095485;28;20472;-78
2021/05/11 06:41:10;;;;;;;2.97;1.80;;;;;;;;;;5083860;28;20032;-78
2021/05/11 06:43:36;;;;;;;3.30;1.98;;;;;;;;;;5097955;28;20103;-77
2021/05/11 06:48:34;;;;;;;3.88;2.55;;;;;;;;;;5100504;28;20039;-77
2021/05/11 06:53:31;;;;;;;4.57;2.60;;;;;;;;;;5100803;28;20107;-77
2021/05/11 06:55:57;;;;;;;3.78;2.60;;;;;;;;;;5089581;28;20062;-78
2021/05/11 06:58:23;;;;;;;3.83;2.08;;;;;;;;;;5076215;28;20025;-78
2021/05/11 07:00:49;;;;;;;3.25;2.10;;;;;;;;;;5078880;28;20521;-77
2021/05/11 07:03:14;;;;;;;18.55;10.50;;;;;;;;;;5081756;28;20046;-77
2021/05/11 07:05:40;;;;;;;20.27;13.25;;;;;;;;;;5077875;28;20115;-77
2021/05/11 07:08:16;;;;;;;10.32;7.43;;;;;;;;;;5075939;28;20031;-78
2021/05/11 07:10:46;;;;;;;4.97;3.30;;;;;;;;;;5079198;28;20020;-77
2021/05/11 07:13:13;;;;;;;4.28;2.80;;;;;;;;;;5076596;28;20047;-77
2021/05/11 07:15:40;;;;;;;4.10;3.20;;;;;;;;;;5077303;28;20119;-77
2021/05/11 07:18:07;;;;;;;4.45;3.00;;;;;;;;;;5078304;28;20024;-78
2021/05/11 07:20:32;;;;;;;2.85;1.73;;;;;;;;;;5080569;28;20029;-77
2021/05/11 07:22:58;;;;;;;2.85;1.88;;;;;;;;;;5079120;28;20034;-78
2021/05/11 07:25:26;;;;;;;5.72;3.22;;;;;;;;;;5071344;28;20444;-77
2021/05/11 07:30:35;;;;;;;6.75;2.35;;;;;;;;;;5075746;28;20385;-77
2021/05/11 07:33:05;;;;;;;3.75;2.13;;;;;;;;;;5069824;28;20024;-79
2021/05/11 07:35:31;;;;;;;3.53;2.10;;;;;;;;;;5081929;28;20027;-79
2021/05/11 07:37:56;;;;;;;3.20;1.70;;;;;;;;;;5090382;28;20446;-80
2021/05/11 07:40:22;;;;;;;3.35;1.75;;;;;;;;;;5062511;28;20548;-81
2021/05/11 07:42:48;;;;;;;3.38;1.92;;;;;;;;;;5073416;28;20464;-81
2021/05/11 07:45:25;;;;;;;2.85;1.48;;;;;;;;;;5066567;28;20028;-81
2021/05/11 07:48:12;;;;;;;2.72;1.63;;;;;;;;;;5065592;28;20025;-81
2021/05/11 08:17:34;;;;;;;4.10;2.00;;;;;;;;;;5066626;28;20025;-80
2021/05/11 08:27:45;;;;;;;4.07;1.70;;;;;;;;;;5066757;28;20031;-80
2021/05/11 08:30:11;;;;;;;5.53;1.90;;;;;;;;;;5067699;28;20026;-80
2021/05/11 08:32:37;;;;;;;3.15;1.70;;;;;;;;;;5067681;28;20207;-80
2021/05/11 08:35:03;;;;;;;4.82;1.70;;;;;;;;;;5065525;28;20100;-80
2021/05/11 08:37:29;;;;;;;3.17;1.80;;;;;;;;;;5064688;28;20473;-80
2021/05/11 08:39:55;;;;;;;3.05;2.03;;;;;;;;;;5066118;28;20111;-80
2021/05/11 08:42:20;;;;;;;2.63;1.83;;;;;;;;;;5062740;28;20059;-80
2021/05/11 08:44:46;;;;;;;2.75;1.55;;;;;;;;;;5066138;28;20031;-80
2021/05/11 08:47:12;;;;;;;2.63;1.20;;;;;;;;;;5067015;28;20008;-80
2021/05/11 08:49:40;;;;;;;2.72;1.70;;;;;;;;;;5070210;28;20024;-80
2021/05/11 08:52:17;;;;;;;4.47;2.03;;;;;;;;;;5064184;28;20009;-80
2021/05/11 08:55:01;;;;;;;2.70;1.58;;;;;;;;;;5077290;28;20016;-80
2021/05/11 09:08:43;;;;;;;3.95;2.20;;;;;;;;;;5069758;28;20047;-80
2021/05/11 09:14:30;;;;;;;4.25;2.40;;;;;;;;;;5074846;28;20059;-82
2021/05/11 09:27:23;;;;;;;5.13;2.97;;;;;;;;;;5097253;28;20032;-80
2021/05/11 09:54:15;;;;;;;4.72;2.50;;;;;;;;;;5100199;28;20742;-80
2021/05/11 09:58:13;;;;;;;3.33;1.60;;;;;;;;;;5076778;28;20054;-79
2021/05/11 10:01:33;;;;;;;3.10;1.70;;;;;;;;;;5098430;28;20032;-79
2021/05/11 10:10:50;;;;;;;2.30;1.17;;;;;;;;;;5066243;28;20077;-80
2021/05/11 10:46:30;;;;;;;2.00;0.93;;;;;;;;;;5098093;28;20035;-79
2021/05/11 10:48:25;;;;;;;3.47;1.25;;;;;;;;;;5097155;28;20458;-79
2021/05/11 10:50:54;;;;;;;3.95;1.40;;;;;;;;;;5102934;28;20438;-79
2021/05/11 10:53:39;;;;;;;3.50;1.23;;;;;;;;;;5101216;28;20019;-80
2021/05/11 10:56:17;;;;;;;2.83;1.17;;;;;;;;;;5098300;28;20050;-79
2021/05/11 10:59:01;;;;;;;3.30;2.13;;;;;;;;;;5097851;28;20023;-79
2021/05/11 11:01:36;;;;;;;3.47;1.70;;;;;;;;;;5084346;28;20035;-79
2021/05/11 11:04:07;;;;;;;2.33;1.35;;;;;;;;;;5114204;22;20135;-81
2021/05/11 11:06:52;;;;;;;2.80;1.40;;;;;;;;;;5056880;28;20055;-80
2021/05/11 11:09:18;;;;;;;4.15;1.52;;;;;;;;;;5076905;28;20055;-80
2021/05/11 11:11:44;;;;;;;4.30;1.40;;;;;;;;;;5078721;28;20099;-80
2021/05/11 11:14:09;;;;;;;2.92;1.42;;;;;;;;;;5096185;28;20020;-81
2021/05/11 11:16:35;;;;;;;2.60;1.40;;;;;;;;;;5086626;28;20041;-79
2021/05/11 11:19:07;;;;;;;2.70;1.33;;;;;;;;;;5098001;28;20043;-80
2021/05/11 11:24:26;;;;;;;3.97;1.20;;;;;;;;;;5093834;28;20036;-80
2021/05/11 11:26:53;;;;;;;4.75;1.40;;;;;;;;;;5093454;28;20063;-80
2021/05/11 11:29:22;;;;;;;2.95;1.10;;;;;;;;;;5079798;28;20760;-82
2021/05/11 11:31:48;;;;;;;1.77;1.00;;;;;;;;;;5093584;28;20098;-81
2021/05/11 11:34:14;;;;;;;1.88;1.00;;;;;;;;;;5095796;28;20379;-81
2021/05/11 11:36:40;;;;;;;3.35;1.20;;;;;;;;;;5078986;28;20047;-80
2021/05/11 11:39:15;;;;;;;2.58;1.20;;;;;;;;;;5096174;28;20041;-81
2021/05/11 11:41:41;;;;;;;2.65;1.02;;;;;;;;;;5092118;28;20066;-80
2021/05/11 11:44:07;;;;;;;2.05;1.00;;;;;;;;;;5095661;28;20244;-81
2021/05/11 11:46:33;;;;;;;1.85;0.93;;;;;;;;;;5077821;28;20023;-81
2021/05/11 11:49:08;;;;;;;2.55;1.00;;;;;;;;;;5077831;28;20090;-80
2021/05/11 11:51:35;;;;;;;1.38;0.88;;;;;;;;;;5080181;28;20039;-78
2021/05/11 11:54:28;;;;;;;1.70;0.80;;;;;;;;;;5077436;28;20024;-80
2021/05/11 11:59:32;;;;;;;1.75;0.90;;;;;;;;;;5093306;28;20028;-79
2021/05/11 12:01:59;;;;;;;2.42;0.85;;;;;;;;;;5089065;28;20031;-80
2021/05/11 12:04:25;;;;;;;3.40;1.00;;;;;;;;;;5076463;28;20061;-78
2021/05/11 12:06:51;;;;;;;2.20;0.90;;;;;;;;;;5094235;28;20103;-81
2021/05/11 12:09:18;;;;;;;2.58;1.10;;;;;;;;;;5092460;28;20396;-81
2021/05/11 12:11:44;;;;;;;1.63;0.90;;;;;;;;;;5077185;28;20024;-80
2021/05/11 12:14:09;;;;;;;1.92;0.82;;;;;;;;;;5094712;28;20054;-82
2021/05/11 12:16:42;;;;;;;2.60;1.13;;;;;;;;;;5091239;28;20026;-81
2021/05/11 12:19:21;;;;;;;1.80;0.80;;;;;;;;;;5073888;28;20024;-81
2021/05/11 12:21:50;;;;;;;4.07;1.27;;;;;;;;;;5079245;28;20020;-81
2021/05/11 12:24:16;;;;;;;1.73;0.80;;;;;;;;;;5091963;28;20066;-78
2021/05/11 12:26:43;;;;;;;2.22;1.00;;;;;;;;;;5094652;28;20383;-80
2021/05/11 12:29:12;;;;;;;3.65;2.33;;;;;;;;;;5092402;28;20020;-81
2021/05/11 12:31:40;;;;;;;3.53;1.95;;;;;;;;;;5094402;28;20024;-79
2021/05/11 12:34:11;;;;;;;3.85;2.28;;;;;;;;;;5094834;28;20023;-81
2021/05/11 12:37:01;;;;;;;3.33;1.85;;;;;;;;;;5094591;28;20046;-79
2021/05/11 12:42:14;;;;;;;2.53;1.10;;;;;;;;;;5095354;28;20032;-78
2021/05/11 12:44:41;;;;;;;2.25;1.20;;;;;;;;;;5094284;28;20051;-80
2021/05/11 12:47:08;;;;;;;3.97;1.35;;;;;;;;;;5074147;28;20042;-80
2021/05/11 12:49:35;;;;;;;3.28;1.58;;;;;;;;;;5095916;28;20395;-79
2021/05/11 12:52:01;;;;;;;3.33;1.42;;;;;;;;;;5083848;28;20034;-80
2021/05/11 12:54:40;;;;;;;3.67;1.40;;;;;;;;;;5095257;28;20445;-80
2021/05/11 12:57:15;;;;;;;2.53;1.15;;;;;;;;;;5094935;28;20020;-79
2021/05/11 12:59:58;;;;;;;3.55;1.15;;;;;;;;;;5088976;28;20028;-79
2021/05/11 13:16:52;;;;;;;3.00;1.33;;;;;;;;;;5119611;27;20342;-80
2021/05/11 13:21:36;;;;;;;3.60;1.70;;;;;;;;;;5119995;28;20031;-79
2021/05/11 13:26:52;;;;;;;2.78;1.45;;;;;;;;;;5108716;28;20038;-81
2021/05/11 13:29:49;;;;;;;4.32;1.50;;;;;;;;;;5107195;28;20150;-81
2021/05/11 13:32:12;;;;;;;2.70;1.50;;;;;;;;;;5112561;28;20032;-81
2021/05/11 13:34:38;;;;;;;1.90;1.00;;;;;;;;;;5110684;28;20024;-81
2021/05/11 13:37:04;;;;;;;3.28;1.30;;;;;;;;;;5103367;28;20064;-81
2021/05/11 13:39:29;;;;;;;2.60;0.98;;;;;;;;;;5104834;28;20063;-78
2021/05/11 13:41:55;;;;;;;1.80;1.00;;;;;;;;;;5117380;28;20023;-77
2021/05/11 13:44:21;;;;;;;5.50;0.98;;;;;;;;;;5122865;28;20091;-76
2021/05/11 13:46:46;;;;;;;1.88;0.85;;;;;;;;;;5112538;28;20036;-80
2021/05/11 13:49:15;;;;;;;2.42;1.10;;;;;;;;;;5098930;28;20028;-81
2021/05/11 13:51:40;;;;;;;2.38;1.08;;;;;;;;;;5095079;28;20501;-81
2021/05/11 13:54:08;;;;;;;1.80;0.90;;;;;;;;;;5098301;28;20020;-81
2021/05/11 13:56:45;;;;;;;5.68;1.00;;;;;;;;;;5102298;28;20082;-79
2021/05/11 14:04:21;;;;;;;1.45;0.73;;;;;;;;;;5105534;28;20024;-81
2021/05/11 14:06:47;;;;;;;2.58;1.13;;;;;;;;;;5110063;28;20472;-81
2021/05/11 14:09:13;;;;;;;2.13;0.93;;;;;;;;;;5107804;28;20043;-81
2021/05/11 14:11:40;;;;;;;2.05;0.90;;;;;;;;;;5109762;28;20023;-81
2021/05/11 14:14:06;;;;;;;2.40;0.82;;;;;;;;;;5098725;28;20027;-81
2021/05/11 14:16:32;;;;;;;2.58;1.08;;;;;;;;;;5100575;28;20027;-80
2021/05/11 14:18:57;;;;;;;2.85;1.00;;;;;;;;;;5100704;28;20053;-80
2021/05/11 14:21:24;;;;;;;3.05;1.38;;;;;;;;;;5095534;28;20024;-81
2021/05/11 14:23:52;;;;;;;2.33;1.00;;;;;;;;;;5094585;28;20024;-81
2021/05/11 14:26:18;;;;;;;5.60;0.90;;;;;;;;;;5088576;28;20028;-81
2021/05/11 14:28:44;;;;;;;2.47;0.68;;;;;;;;;;5087359;28;20706;-81
2021/05/11 14:31:10;;;;;;;1.70;0.80;;;;;;;;;;5086716;28;20017;-81
2021/05/11 14:33:36;;;;;;;1.55;0.70;;;;;;;;;;5090501;28;20100;-81
2021/05/11 14:36:01;;;;;;;1.35;0.63;;;;;;;;;;5087956;28;20036;-81
2021/05/11 14:38:27;;;;;;;1.58;0.70;;;;;;;;;;5102002;28;19922;-78
2021/05/11 14:40:53;;;;;;;1.42;0.60;;;;;;;;;;5091998;28;20092;-79
2021/05/11 14:43:19;;;;;;;1.73;0.70;;;;;;;;;;5090067;28;20130;-80
2021/05/11 14:45:44;;;;;;;1.35;0.60;;;;;;;;;;5092188;28;20099;-80
2021/05/11 14:48:10;;;;;;;1.73;0.73;;;;;;;;;;5078069;28;20099;-80
2021/05/11 14:50:36;;;;;;;2.42;1.17;;;;;;;;;;5078346;28;20024;-80
2021/05/11 14:53:01;;;;;;;1.95;0.70;;;;;;;;;;5080241;28;20016;-79
2021/05/11 14:55:27;;;;;;;3.58;0.93;;;;;;;;;;5076641;28;20023;-79
2021/05/11 14:57:54;;;;;;;1.27;0.60;;;;;;;;;;5093021;28;20019;-80
2021/05/11 15:00:20;;;;;;;1.80;0.90;;;;;;;;;;5077419;28;20028;-80
2021/05/11 15:02:45;;;;;;;1.80;0.80;;;;;;;;;;5076855;27;20802;-80
2021/05/11 15:05:12;;;;;;;2.42;1.00;;;;;;;;;;5080702;28;20102;-79
2021/05/11 15:07:37;;;;;;;2.60;0.93;;;;;;;;;;5084516;28;20027;-79
2021/05/11 15:10:04;;;;;;;2.28;1.10;;;;;;;;;;5083360;28;20028;-80
2021/05/11 15:12:29;;;;;;;2.95;1.05;;;;;;;;;;5086085;28;20026;-80
2021/05/11 15:14:55;;;;;;;4.00;1.40;;;;;;;;;;5084646;28;20458;-79
2021/05/11 15:19:47;;;;;;;3.80;2.22;;;;;;;;;;5085019;28;20450;-81
2021/05/11 15:22:12;;;;;;;3.30;1.60;;;;;;;;;;5082456;28;20036;-78
2021/05/11 15:24:38;;;;;;;2.80;1.45;;;;;;;;;;5091968;28;20024;-79
2021/05/11 15:27:04;;;;;;;2.30;1.25;;;;;;;;;;5098880;28;20023;-78
2021/05/11 15:29:30;;;;;;;2.55;1.13;;;;;;;;;;5093220;28;20024;-78
2021/05/11 15:31:57;;;;;;;2.22;1.20;;;;;;;;;;5097723;28;20035;-78
2021/05/11 15:34:30;;;;;;;2.85;1.30;;;;;;;;;;5102956;28;20120;-79
2021/05/11 15:36:56;;;;;;;2.35;0.98;;;;;;;;;;5111031;28;20055;-79
2021/05/11 15:39:22;;;;;;;2.40;1.10;;;;;;;;;;5094032;28;20035;-79
2021/05/11 15:41:48;;;;;;;1.90;1.00;;;;;;;;;;5101236;28;20031;-78
2021/05/11 15:44:14;;;;;;;1.85;0.80;;;;;;;;;;5110241;28;20027;-79
2021/05/11 15:46:39;;;;;;;1.95;0.88;;;;;;;;;;5082737;28;20039;-80
2021/05/11 15:49:05;;;;;;;2.78;1.15;;;;;;;;;;5083537;28;20012;-80
2021/05/11 15:51:31;;;;;;;2.13;0.98;;;;;;;;;;5079138;28;20115;-80
2021/05/11 15:53:56;;;;;;;2.53;1.33;;;;;;;;;;5086925;28;20539;-79
2021/05/11 15:56:22;;;;;;;1.80;0.95;;;;;;;;;;5091396;28;20020;-79
2021/05/11 15:58:50;;;;;;;1.90;0.88;;;;;;;;;;5083651;28;20103;-80
2021/05/11 16:01:15;;;;;;;3.03;0.88;;;;;;;;;;5085366;28;20496;-79
2021/05/11 16:03:41;;;;;;;3.05;1.00;;;;;;;;;;5081948;28;20056;-80
2021/05/11 16:06:07;;;;;;;1.92;0.93;;;;;;;;;;5083979;28;20069;-79
2021/05/11 16:08:32;;;;;;;2.50;1.20;;;;;;;;;;5083290;28;20077;-80
2021/05/11 16:11:01;;;;;;;2.60;1.15;;;;;;;;;;5084499;28;20023;-80
2021/05/11 16:13:26;;;;;;;3.63;1.58;;;;;;;;;;5093529;28;20017;-81
2021/05/11 16:15:52;;;;;;;2.53;1.00;;;;;;;;;;5085568;28;20018;-81
2021/05/11 16:18:18;;;;;;;2.35;0.77;;;;;;;;;;5089099;28;20024;-80
2021/05/11 16:20:44;;;;;;;2.50;1.13;;;;;;;;;;5090642;28;20011;-81
2021/05/11 16:23:13;;;;;;;3.58;2.65;;;;;;;;;;5085652;28;20441;-80
2021/05/11 16:25:39;;;;;;;3.88;2.08;;;;;;;;;;5084277;28;20483;-80
2021/05/11 16:28:05;;;;;;;2.80;1.60;;;;;;;;;;5077289;28;20165;-80
2021/05/11 16:30:31;;;;;;;2.72;1.50;;;;;;;;;;5099125;28;20480;-81
2021/05/11 16:32:57;;;;;;;6.35;3.75;;;;;;;;;;5101820;28;20016;-80
2021/05/11 16:35:23;;;;;;;6.53;4.22;;;;;;;;;;5078491;28;20074;-80
2021/05/11 16:37:49;;;;;;;4.95;3.38;;;;;;;;;;5086373;28;20024;-81
2021/05/11 16:40:15;;;;;;;3.35;2.45;;;;;;;;;;5080274;28;20032;-79
2021/05/11 16:42:41;;;;;;;4.28;2.28;;;;;;;;;;5083218;28;20112;-80
2021/05/11 16:45:09;;;;;;;2.80;2.00;;;;;;;;;;5090750;28;20020;-80
2021/05/11 16:47:35;;;;;;;2.97;2.08;;;;;;;;;;5092573;28;20028;-80
2021/05/11 16:50:01;;;;;;;3.83;2.75;;;;;;;;;;5101065;28;20029;-80
2021/05/11 16:52:26;;;;;;;4.28;2.35;;;;;;;;;;5077739;28;20031;-77
2021/05/11 16:54:52;;;;;;;3.85;2.80;;;;;;;;;;5089785;28;20026;-79
2021/05/11 16:57:18;;;;;;;3.83;2.85;;;;;;;;;;5093813;28;20034;-79
2021/05/11 16:59:43;;;;;;;3.90;3.00;;;;;;;;;;5088878;28;20023;-79
2021/05/11 17:02:09;;;;;;;4.18;2.45;;;;;;;;;;5096452;28;20099;-78
2021/05/11 17:04:35;;;;;;;4.22;2.05;;;;;;;;;;5096278;28;20464;-79
2021/05/11 17:07:01;;;;;;;5.07;3.20;;;;;;;;;;5092596;22;20123;-83
2021/05/11 17:09:26;;;;;;;3.00;2.10;;;;;;;;;;5071778;28;20021;-81
2021/05/11 17:11:52;;;;;;;3.67;2.22;;;;;;;;;;5071956;28;20460;-81
2021/05/11 17:14:18;;;;;;;3.78;2.60;;;;;;;;;;5072073;28;20044;-81
2021/05/11 17:16:46;;;;;;;9.15;6.03;;;;;;;;;;5085624;28;20020;-81
2021/05/11 17:19:12;;;;;;;24.92;17.92;;;;;;;;;;5092007;28;20501;-81
2021/05/11 17:21:38;;;;;;;22.52;16.67;;;;;;;;;;5073022;28;20119;-81
2021/05/11 17:24:03;;;;;;;31.55;19.92;;;;;;;;;;5091851;28;20104;-83
2021/05/11 17:26:30;;;;;;;27.15;16.92;;;;;;;;;;5071927;28;20048;-81
2021/05/11 17:28:58;;;;;;;15.48;10.32;;;;;;;;;;5092929;28;20016;-83
2021/05/11 17:31:25;;;;;;;10.70;7.82;;;;;;;;;;5085351;28;20081;-81
2021/05/11 17:33:50;;;;;;;7.72;3.65;;;;;;;;;;5089947;28;20476;-81
2021/05/11 17:36:16;;;;;;;5.05;3.65;;;;;;;;;;5089597;28;20024;-81
2021/05/11 17:38:42;;;;;;;9.55;6.30;;;;;;;;;;5085539;28;20020;-82
2021/05/11 17:41:08;;;;;;;8.48;5.78;;;;;;;;;;5090792;28;20016;-81
2021/05/11 17:43:34;;;;;;;10.65;8.95;;;;;;;;;;5076432;28;20484;-81
2021/05/11 17:46:00;;;;;;;6.25;5.13;;;;;;;;;;5078069;28;20074;-83
2021/05/11 17:48:30;;;;;;;14.05;8.27;;;;;;;;;;5085587;28;20055;-84
2021/05/11 17:50:56;;;;;;;16.40;12.85;;;;;;;;;;5095517;28;20046;-84
2021/05/11 17:53:22;;;;;;;14.82;11.30;;;;;;;;;;5072970;28;20048;-81
2021/05/11 17:55:48;;;;;;;11.98;10.68;;;;;;;;;;5084642;28;20387;-81
2021/05/11 17:58:13;;;;;;;11.85;9.55;;;;;;;;;;5087885;28;20016;-80
2021/05/11 18:00:39;;;;;;;9.95;7.18;;;;;;;;;;5084537;28;20017;-81
2021/05/11 18:03:08;;;;;;;10.13;8.02;;;;;;;;;;5089525;28;20475;-80
2021/05/11 18:05:35;;;;;;;7.63;4.60;;;;;;;;;;5087567;28;20033;-80
2021/05/11 18:10:19;;;;;;;6.65;4.25;;;;;;;;;;5098651;27;20368;-82
2021/05/11 18:12:45;;;;;;;4.72;3.15;;;;;;;;;;5092504;28;20048;-81
2021/05/11 18:15:11;;;;;;;4.97;2.55;;;;;;;;;;5088140;28;20485;-80
2021/05/11 18:17:37;;;;;;;3.95;1.95;;;;;;;;;;5091684;28;20035;-80
2021/05/11 18:20:03;;;;;;;2.97;1.60;;;;;;;;;;5094396;28;20020;-79
2021/05/11 18:22:29;;;;;;;2.90;1.60;;;;;;;;;;5098789;28;20452;-80
2021/05/11 18:24:55;;;;;;;3.00;1.63;;;;;;;;;;5095730;28;20038;-81
2021/05/11 18:27:21;;;;;;;4.13;1.70;;;;;;;;;;5101549;28;20484;-80
2021/05/11 18:29:47;;;;;;;4.80;2.03;;;;;;;;;;5090057;28;20020;-80
2021/05/11 18:32:13;;;;;;;5.85;3.63;;;;;;;;;;5096735;28;20487;-80
2021/05/11 18:34:39;;;;;;;3.67;2.70;;;;;;;;;;5094525;28;20111;-79
2021/05/11 18:37:31;;;;;;;3.22;1.85;;;;;;;;;;5093876;28;20042;-80
2021/05/11 18:39:57;;;;;;;3.65;2.00;;;;;;;;;;5088068;28;20028;-80
2021/05/11 18:42:26;;;;;;;3.63;1.90;;;;;;;;;;5091502;28;20034;-79
2021/05/11 18:44:51;;;;;;;4.90;2.00;;;;;;;;;;5101184;28;20423;-80
2021/05/11 18:47:17;;;;;;;3.75;2.10;;;;;;;;;;5092778;28;20023;-79
2021/05/11 18:49:42;;;;;;;3.78;2.20;;;;;;;;;;5095734;28;20026;-80
2021/05/11 18:52:12;;;;;;;3.65;1.60;;;;;;;;;;5100697;28;20038;-81
2021/05/11 18:54:37;;;;;;;3.17;1.77;;;;;;;;;;5103377;28;20045;-81
2021/05/11 18:57:03;;;;;;;4.90;2.10;;;;;;;;;;5092918;28;20050;-79
2021/05/11 18:59:29;;;;;;;4.63;2.03;;;;;;;;;;5098724;28;20501;-79
2021/05/11 19:01:54;;;;;;;5.22;2.03;;;;;;;;;;5099169;28;20103;-79
2021/05/11 19:04:21;;;;;;;3.40;2.00;;;;;;;;;;5101362;28;20036;-79
2021/05/11 19:06:46;;;;;;;3.15;1.88;;;;;;;;;;5090041;28;20028;-79
2021/05/11 19:09:12;;;;;;;3.33;2.22;;;;;;;;;;5092193;28;20042;-80
2021/05/11 19:11:39;;;;;;;4.85;2.50;;;;;;;;;;5096592;28;20115;-80
2021/05/11 19:14:05;;;;;;;3.25;1.98;;;;;;;;;;5100125;28;20030;-79
2021/05/11 19:16:31;;;;;;;3.45;1.73;;;;;;;;;;5100541;28;20024;-81
2021/05/11 19:18:56;;;;;;;2.92;1.73;;;;;;;;;;5097409;28;20399;-80
2021/05/11 19:21:23;;;;;;;4.10;2.00;;;;;;;;;;5087880;28;20032;-80
2021/05/11 19:23:49;;;;;;;5.45;2.05;;;;;;;;;;5080492;28;20028;-80
2021/05/11 19:26:15;;;;;;;8.18;2.80;;;;;;;;;;5088209;28;20024;-79
2021/05/11 19:28:41;;;;;;;4.53;2.75;;;;;;;;;;5066492;28;20566;-80
2021/05/11 19:31:08;;;;;;;5.68;2.60;;;;;;;;;;5073306;28;20024;-81
2021/05/11 19:33:37;;;;;;;6.57;2.85;;;;;;;;;;5075937;28;20025;-80
2021/05/11 19:36:04;;;;;;;4.60;2.08;;;;;;;;;;5070308;28;20107;-80
2021/05/11 19:38:30;;;;;;;3.45;1.90;;;;;;;;;;5080878;28;20030;-79
2021/05/11 19:40:56;;;;;;;5.32;2.20;;;;;;;;;;5075490;28;20020;-80
2021/05/11 19:43:22;;;;;;;5.55;1.70;;;;;;;;;;5077790;28;20020;-80
2021/05/11 19:45:47;;;;;;;2.83;1.70;;;;;;;;;;5077776;28;19942;-80
2021/05/11 19:48:15;;;;;;;2.65;1.60;;;;;;;;;;5082104;28;20035;-80
2021/05/11 19:50:41;;;;;;;3.97;1.75;;;;;;;;;;5082786;28;20111;-81
2021/05/11 19:53:07;;;;;;;3.15;2.13;;;;;;;;;;5079857;28;20077;-81
2021/05/11 19:55:32;;;;;;;2.78;1.63;;;;;;;;;;5081468;28;20087;-81
2021/05/11 19:57:58;;;;;;;3.75;2.00;;;;;;;;;;5077139;28;20013;-81
2021/05/11 20:00:24;;;;;;;4.72;2.10;;;;;;;;;;5080024;28;20391;-81
2021/05/11 20:02:49;;;;;;;6.18;2.67;;;;;;;;;;5080214;28;20108;-81
2021/05/11 20:05:15;;;;;;;3.85;2.00;;;;;;;;;;5078691;28;20035;-81
2021/05/11 20:07:41;;;;;;;3.88;2.70;;;;;;;;;;5083774;28;20368;-80
2021/05/11 20:10:07;;;;;;;5.47;2.33;;;;;;;;;;5079954;28;20070;-80
2021/05/11 20:12:34;;;;;;;2.80;1.55;;;;;;;;;;5090327;28;20035;-81
2021/05/11 20:15:01;;;;;;;3.45;2.30;;;;;;;;;;5082096;28;20019;-81
2021/05/11 20:17:27;;;;;;;3.75;1.50;;;;;;;;;;5082078;28;20042;-81
2021/05/11 20:19:53;;;;;;;2.70;1.30;;;;;;;;;;5080238;28;20025;-82
2021/05/11 20:22:18;;;;;;;2.42;1.33;;;;;;;;;;5080681;28;20416;-81
2021/05/11 20:24:44;;;;;;;5.00;1.38;;;;;;;;;;5070011;28;20021;-82
2021/05/11 20:27:10;;;;;;;4.40;1.30;;;;;;;;;;5072034;28;20108;-81
2021/05/11 20:29:35;;;;;;;2.10;1.10;;;;;;;;;;5071342;28;20464;-81
2021/05/11 20:32:01;;;;;;;2.10;1.15;;;;;;;;;;5076910;28;20115;-81
2021/05/11 20:34:27;;;;;;;2.67;1.42;;;;;;;;;;5069763;28;20028;-81
2021/05/11 20:36:53;;;;;;;2.90;1.10;;;;;;;;;;5074960;28;20503;-81
2021/05/11 20:39:18;;;;;;;2.60;1.20;;;;;;;;;;5071934;28;20404;-81
2021/05/11 20:41:45;;;;;;;2.30;1.10;;;;;;;;;;5071281;28;20032;-81
2021/05/11 20:44:13;;;;;;;3.03;1.25;;;;;;;;;;5069511;28;20056;-81
2021/05/11 20:46:39;;;;;;;2.53;1.10;;;;;;;;;;5078623;28;20502;-81
2021/05/11 20:49:04;;;;;;;3.65;1.67;;;;;;;;;;5087756;28;20024;-81
2021/05/11 20:51:31;;;;;;;3.03;1.30;;;;;;;;;;5080989;28;20075;-81
2021/05/11 20:53:56;;;;;;;4.28;1.40;;;;;;;;;;5091007;28;20469;-81
2021/05/11 20:56:22;;;;;;;3.00;1.30;;;;;;;;;;5078399;28;20045;-81
2021/05/11 20:58:51;;;;;;;2.80;1.60;;;;;;;;;;5071856;28;20082;-81
2021/05/11 21:01:17;;;;;;;2.97;1.60;;;;;;;;;;5080896;28;20078;-82
2021/05/11 21:03:43;;;;;;;4.07;1.85;;;;;;;;;;5077997;28;20024;-82
2021/05/11 21:06:08;;;;;;;4.50;1.50;;;;;;;;;;5080413;28;20036;-82
2021/05/11 21:08:35;;;;;;;5.70;1.83;;;;;;;;;;5072988;28;20036;-81
2021/05/11 21:11:00;;;;;;;3.83;2.33;;;;;;;;;;5086437;28;20071;-82
2021/05/11 21:13:26;;;;;;;4.15;2.35;;;;;;;;;;5079690;28;20016;-82
2021/05/11 21:15:53;;;;;;;6.03;2.28;;;;;;;;;;5084718;28;20024;-82
2021/05/11 21:18:18;;;;;;;3.47;1.60;;;;;;;;;;5079147;28;20030;-81
2021/05/11 21:20:45;;;;;;;3.53;1.73;;;;;;;;;;5077883;28;20778;-81
2021/05/11 21:23:11;;;;;;;3.05;1.65;;;;;;;;;;5079742;28;20028;-81
2021/05/11 21:25:37;;;;;;;2.97;1.67;;;;;;;;;;5076091;28;20118;-80
2021/05/11 21:28:03;;;;;;;2.92;1.38;;;;;;;;;;5080795;28;20027;-81
2021/05/11 21:30:29;;;;;;;4.40;1.73;;;;;;;;;;5065009;28;20024;-80
2021/05/11 21:32:54;;;;;;;3.55;2.25;;;;;;;;;;5070057;28;20580;-81
2021/05/11 21:35:20;;;;;;;4.47;2.20;;;;;;;;;;5071938;28;20036;-80
2021/05/11 21:37:46;;;;;;;3.55;2.00;;;;;;;;;;5070246;28;20017;-82
2021/05/11 21:40:12;;;;;;;3.72;2.03;;;;;;;;;;5070066;28;20033;-82
2021/05/11 21:42:38;;;;;;;6.22;2.22;;;;;;;;;;5074160;28;20086;-81
2021/05/11 21:45:04;;;;;;;4.22;2.10;;;;;;;;;;5074385;28;20030;-82
2021/05/11 21:47:30;;;;;;;4.72;2.05;;;;;;;;;;5068401;28;20044;-81
2021/05/11 21:49:56;;;;;;;3.35;1.83;;;;;;;;;;5075661;28;20475;-82
